sensor_id;sensor_type;location;lat;lon;timestamp;temperature;humidity
72919;SHT30;68407;55.694;26.994;2023-12-14T00:01:46;1.8;88.4
72919;SHT30;68407;55.694;26.994;2023-12-14T00:06:58;1.8;88.4
72919;SHT30;68407;55.694;26.994;2023-12-14T00:12:16;1.7;88.5
72919;SHT30;68407;55.694;26.994;2023-12-14T00:16:55;1.8;88.5
72919;SHT30;68407;55.694;26.994;2023-12-14T00:21:41;1.8;88.3
72919;SHT30;68407;55.694;26.994;2023-12-14T00:26:32;1.6;88.5
72919;SHT30;68407;55.694;26.994;2023-12-14T00:32:11;1.5;89
72919;SHT30;68407;55.694;26.994;2023-12-14T00:37:19;1.4;89.2
72919;SHT30;68407;55.694;26.994;2023-12-14T00:41:31;1.5;89.5
72919;SHT30;68407;55.694;26.994;2023-12-14T00:47:06;1.4;89.5
72919;SHT30;68407;55.694;26.994;2023-12-14T00:52:19;1.4;89.8
72919;SHT30;68407;55.694;26.994;2023-12-14T00:57:08;1.5;89.9
72919;SHT30;68407;55.694;26.994;2023-12-14T01:02:19;1.6;89.6
72919;SHT30;68407;55.694;26.994;2023-12-14T01:06:30;1.6;89.5
72919;SHT30;68407;55.694;26.994;2023-12-14T01:11:35;1.4;89.8
72919;SHT30;68407;55.694;26.994;2023-12-14T01:17:19;1.4;90
72919;SHT30;68407;55.694;26.994;2023-12-14T01:21:53;1.4;90.2
72919;SHT30;68407;55.694;26.994;2023-12-14T01:27:19;1.4;90.2
72919;SHT30;68407;55.694;26.994;2023-12-14T01:31:45;1.3;90.5
72919;SHT30;68407;55.694;26.994;2023-12-14T01:36:51;1.2;90.7
72919;SHT30;68407;55.694;26.994;2023-12-14T01:41:47;1.2;90.9
72919;SHT30;68407;55.694;26.994;2023-12-14T01:47:11;1.2;91
72919;SHT30;68407;55.694;26.994;2023-12-14T01:52:01;1.2;91.1
72919;SHT30;68407;55.694;26.994;2023-12-14T01:56:47;1.3;91.1
72919;SHT30;68407;55.694;26.994;2023-12-14T02:01:47;1.3;91.1
72919;SHT30;68407;55.694;26.994;2023-12-14T02:06:31;1.3;91.1
72919;SHT30;68407;55.694;26.994;2023-12-14T02:12:11;1.3;91
72919;SHT30;68407;55.694;26.994;2023-12-14T02:17:17;1.3;91
72919;SHT30;68407;55.694;26.994;2023-12-14T02:21:41;1.4;90.9
72919;SHT30;68407;55.694;26.994;2023-12-14T02:26:33;1.2;91
72919;SHT30;68407;55.694;26.994;2023-12-14T02:32:05;1.1;91.4
72919;SHT30;68407;55.694;26.994;2023-12-14T02:36:31;1.1;91.6
72919;SHT30;68407;55.694;26.994;2023-12-14T02:42:19;1;91.8
72919;SHT30;68407;55.694;26.994;2023-12-14T02:46:41;1.1;91.9
72919;SHT30;68407;55.694;26.994;2023-12-14T02:51:41;1.2;91.9
72919;SHT30;68407;55.694;26.994;2023-12-14T02:56:59;1.2;91.7
72919;SHT30;68407;55.694;26.994;2023-12-14T03:02:11;1.2;91.8
72919;SHT30;68407;55.694;26.994;2023-12-14T03:07:17;1.2;91.7
72919;SHT30;68407;55.694;26.994;2023-12-14T03:11:45;1.1;91.8
72919;SHT30;68407;55.694;26.994;2023-12-14T03:17:05;1.1;91.9
72919;SHT30;68407;55.694;26.994;2023-12-14T03:21:31;1.1;92.1
72919;SHT30;68407;55.694;26.994;2023-12-14T03:26:31;1.2;92.1
72919;SHT30;68407;55.694;26.994;2023-12-14T03:32:01;1.3;91.9
72919;SHT30;68407;55.694;26.994;2023-12-14T03:36:31;1.2;91.8
72919;SHT30;68407;55.694;26.994;2023-12-14T03:42:01;1.2;92
72919;SHT30;68407;55.694;26.994;2023-12-14T03:46:39;1.3;91.9
72919;SHT30;68407;55.694;26.994;2023-12-14T03:52:09;1.3;91.8
72919;SHT30;68407;55.694;26.994;2023-12-14T03:57:21;1.3;91.8
72919;SHT30;68407;55.694;26.994;2023-12-14T04:01:39;1.3;91.8
72919;SHT30;68407;55.694;26.994;2023-12-14T04:07:09;1.4;91.7
72919;SHT30;68407;55.694;26.994;2023-12-14T04:11:33;1.4;91.5
72919;SHT30;68407;55.694;26.994;2023-12-14T04:16:59;1.4;91.5
72919;SHT30;68407;55.694;26.994;2023-12-14T04:22:07;1.4;91.5
72919;SHT30;68407;55.694;26.994;2023-12-14T04:26:39;1.3;91.5
72919;SHT30;68407;55.694;26.994;2023-12-14T04:31:31;1.3;91.5
72919;SHT30;68407;55.694;26.994;2023-12-14T04:36:31;1.3;91.6
72919;SHT30;68407;55.694;26.994;2023-12-14T04:42:09;1.3;91.6
72919;SHT30;68407;55.694;26.994;2023-12-14T04:47:19;1.3;91.7
72919;SHT30;68407;55.694;26.994;2023-12-14T04:51:31;1.3;91.7
72919;SHT30;68407;55.694;26.994;2023-12-14T04:56:35;1.3;91.7
72919;SHT30;68407;55.694;26.994;2023-12-14T05:01:45;1.4;91.6
72919;SHT30;68407;55.694;26.994;2023-12-14T05:06:31;1.3;91.5
72919;SHT30;68407;55.694;26.994;2023-12-14T05:12:19;1.3;91.6
72919;SHT30;68407;55.694;26.994;2023-12-14T05:16:33;1.3;91.5
72919;SHT30;68407;55.694;26.994;2023-12-14T05:21:31;1.3;91.7
72919;SHT30;68407;55.694;26.994;2023-12-14T05:27:19;1.3;91.7
72919;SHT30;68407;55.694;26.994;2023-12-14T05:31:49;1.3;91.8
72919;SHT30;68407;55.694;26.994;2023-12-14T05:37:17;1.3;91.7
72919;SHT30;68407;55.694;26.994;2023-12-14T05:42:15;1.3;91.7
72919;SHT30;68407;55.694;26.994;2023-12-14T05:46:47;1.3;91.6
72919;SHT30;68407;55.694;26.994;2023-12-14T05:52:07;1.3;91.6
72919;SHT30;68407;55.694;26.994;2023-12-14T05:56:39;1.2;91.7
72919;SHT30;68407;55.694;26.994;2023-12-14T06:02:03;1.1;91.9
72919;SHT30;68407;55.694;26.994;2023-12-14T06:06:31;1.1;92
72919;SHT30;68407;55.694;26.994;2023-12-14T06:12:11;1.1;92.1
72919;SHT30;68407;55.694;26.994;2023-12-14T06:17:17;1.1;92.1
72919;SHT30;68407;55.694;26.994;2023-12-14T06:21:51;1.1;92.1
72919;SHT30;68407;55.694;26.994;2023-12-14T06:27:13;1.1;92.1
72919;SHT30;68407;55.694;26.994;2023-12-14T06:31:57;1.1;92.1
72919;SHT30;68407;55.694;26.994;2023-12-14T06:37:19;1.1;92
72919;SHT30;68407;55.694;26.994;2023-12-14T06:41:43;1.1;92
72919;SHT30;68407;55.694;26.994;2023-12-14T06:47:17;1.1;92
72919;SHT30;68407;55.694;26.994;2023-12-14T06:52:05;1.1;92
72919;SHT30;68407;55.694;26.994;2023-12-14T06:56:33;1.2;92
72919;SHT30;68407;55.694;26.994;2023-12-14T07:01:33;1.3;91.8
72919;SHT30;68407;55.694;26.994;2023-12-14T07:07:09;1.4;91.5
72919;SHT30;68407;55.694;26.994;2023-12-14T07:11:49;1.5;91.3
72919;SHT30;68407;55.694;26.994;2023-12-14T07:17:17;1.5;90.9
72919;SHT30;68407;55.694;26.994;2023-12-14T07:22:17;1.4;91
72919;SHT30;68407;55.694;26.994;2023-12-14T07:27:07;1.5;91
72919;SHT30;68407;55.694;26.994;2023-12-14T07:32:07;1.5;90.8
72919;SHT30;68407;55.694;26.994;2023-12-14T07:36:59;1.5;90.9
72919;SHT30;68407;55.694;26.994;2023-12-14T07:41:35;1.6;90.8
72919;SHT30;68407;55.694;26.994;2023-12-14T07:46:31;1.7;90.6
72919;SHT30;68407;55.694;26.994;2023-12-14T07:52:01;1.8;90.4
72919;SHT30;68407;55.694;26.994;2023-12-14T07:57:15;1.8;90.1
72919;SHT30;68407;55.694;26.994;2023-12-14T08:01:31;1.7;90.1
72919;SHT30;68407;55.694;26.994;2023-12-14T08:06:41;1.8;90.2
72919;SHT30;68407;55.694;26.994;2023-12-14T08:12:17;1.8;90
72919;SHT30;68407;55.694;26.994;2023-12-14T08:17:15;1.9;89.9
72919;SHT30;68407;55.694;26.994;2023-12-14T08:22:01;1.8;89.9
72919;SHT30;68407;55.694;26.994;2023-12-14T08:26:49;1.8;90.1
72919;SHT30;68407;55.694;26.994;2023-12-14T08:31:33;1.9;89.9
72919;SHT30;68407;55.694;26.994;2023-12-14T08:36:39;1.7;90
72919;SHT30;68407;55.694;26.994;2023-12-14T08:41:51;1.7;90.3
72919;SHT30;68407;55.694;26.994;2023-12-14T08:46:56;1.7;90.3
72919;SHT30;68407;55.694;26.994;2023-12-14T08:51:59;1.6;90.5
72919;SHT30;68407;55.694;26.994;2023-12-14T08:57:13;1.8;90.5
72919;SHT30;68407;55.694;26.994;2023-12-14T09:02:15;1.8;90.2
72919;SHT30;68407;55.694;26.994;2023-12-14T09:06:53;1.8;90.2
72919;SHT30;68407;55.694;26.994;2023-12-14T09:11:55;1.8;90.2
72919;SHT30;68407;55.694;26.994;2023-12-14T09:16:31;1.9;90
72919;SHT30;68407;55.694;26.994;2023-12-14T09:21:55;1.9;90
72919;SHT30;68407;55.694;26.994;2023-12-14T09:26:31;2.1;89.6
72919;SHT30;68407;55.694;26.994;2023-12-14T09:32:07;2.1;89.4
72919;SHT30;68407;55.694;26.994;2023-12-14T09:37:15;2.1;89.4
72919;SHT30;68407;55.694;26.994;2023-12-14T09:41:47;2.1;89.3
72919;SHT30;68407;55.694;26.994;2023-12-14T09:47:15;2.2;89.3
72919;SHT30;68407;55.694;26.994;2023-12-14T09:51:55;2.3;89
72919;SHT30;68407;55.694;26.994;2023-12-14T09:57:15;2.4;88.5
72919;SHT30;68407;55.694;26.994;2023-12-14T10:02:17;2.6;88.2
72919;SHT30;68407;55.694;26.994;2023-12-14T10:06:59;2.5;87.8
72919;SHT30;68407;55.694;26.994;2023-12-14T10:12:07;2.4;87.9
72919;SHT30;68407;55.694;26.994;2023-12-14T10:17:16;2.4;88.2
72919;SHT30;68407;55.694;26.994;2023-12-14T10:21:33;2.4;88.1
72919;SHT30;68407;55.694;26.994;2023-12-14T10:26:55;2.5;88
72919;SHT30;68407;55.694;26.994;2023-12-14T10:31:33;2.5;87.9
72919;SHT30;68407;55.694;26.994;2023-12-14T10:37:17;2.4;87.9
72919;SHT30;68407;55.694;26.994;2023-12-14T10:41:33;2.4;87.9
72919;SHT30;68407;55.694;26.994;2023-12-14T10:47:19;2.3;88.1
72919;SHT30;68407;55.694;26.994;2023-12-14T10:52:17;2.3;88.2
72919;SHT30;68407;55.694;26.994;2023-12-14T10:56:33;2.2;88.5
72919;SHT30;68407;55.694;26.994;2023-12-14T11:01:39;2.1;88.6
72919;SHT30;68407;55.694;26.994;2023-12-14T11:06:39;2.1;88.8
72919;SHT30;68407;55.694;26.994;2023-12-14T11:11:38;2.1;88.9
72919;SHT30;68407;55.694;26.994;2023-12-14T11:16:55;2;89
72919;SHT30;68407;55.694;26.994;2023-12-14T11:21:31;2;89.1
72919;SHT30;68407;55.694;26.994;2023-12-14T11:27:17;1.9;89.3
72919;SHT30;68407;55.694;26.994;2023-12-14T11:31:47;1.9;89.5
72919;SHT30;68407;55.694;26.994;2023-12-14T11:36:53;1.9;89.5
72919;SHT30;68407;55.694;26.994;2023-12-14T11:42:17;2;89.4
72919;SHT30;68407;55.694;26.994;2023-12-14T11:46:31;1.9;89.4
72919;SHT30;68407;55.694;26.994;2023-12-14T11:52:16;1.9;89.5
72919;SHT30;68407;55.694;26.994;2023-12-14T11:56:45;1.8;89.6
72919;SHT30;68407;55.694;26.994;2023-12-14T12:02:05;1.8;89.5
72919;SHT30;68407;55.694;26.994;2023-12-14T12:06:58;1.8;89.5
72919;SHT30;68407;55.694;26.994;2023-12-14T12:11:37;1.7;89.6
72919;SHT30;68407;55.694;26.994;2023-12-14T12:17:15;1.8;89.7
72919;SHT30;68407;55.694;26.994;2023-12-14T12:21:57;1.8;89.6
72919;SHT30;68407;55.694;26.994;2023-12-14T12:27:17;1.9;89.5
72919;SHT30;68407;55.694;26.994;2023-12-14T12:32:13;1.9;89.4
72919;SHT30;68407;55.694;26.994;2023-12-14T12:36:37;1.9;89.3
72919;SHT30;68407;55.694;26.994;2023-12-14T12:41:59;1.9;89.3
72919;SHT30;68407;55.694;26.994;2023-12-14T12:46:33;1.9;89.3
72919;SHT30;68407;55.694;26.994;2023-12-14T12:51:59;1.8;89.4
72919;SHT30;68407;55.694;26.994;2023-12-14T12:56:55;1.8;89.5
72919;SHT30;68407;55.694;26.994;2023-12-14T13:01:47;1.8;89.7
72919;SHT30;68407;55.694;26.994;2023-12-14T13:07:17;1.8;89.7
72919;SHT30;68407;55.694;26.994;2023-12-14T13:12:08;1.7;89.7
72919;SHT30;68407;55.694;26.994;2023-12-14T13:17:17;1.6;89.8
72919;SHT30;68407;55.694;26.994;2023-12-14T13:22:19;1.6;89.9
72919;SHT30;68407;55.694;26.994;2023-12-14T13:26:59;1.6;89.9
72919;SHT30;68407;55.694;26.994;2023-12-14T13:32:01;1.6;89.9
72919;SHT30;68407;55.694;26.994;2023-12-14T13:37:17;1.6;89.9
72919;SHT30;68407;55.694;26.994;2023-12-14T13:41:49;1.6;90
72919;SHT30;68407;55.694;26.994;2023-12-14T13:46:57;1.6;90
72919;SHT30;68407;55.694;26.994;2023-12-14T13:51:33;1.6;89.8
72919;SHT30;68407;55.694;26.994;2023-12-14T13:57:07;1.5;89.8
72919;SHT30;68407;55.694;26.994;2023-12-14T14:01:47;1.4;89.9
72919;SHT30;68407;55.694;26.994;2023-12-14T14:06:52;1.5;89.9
72919;SHT30;68407;55.694;26.994;2023-12-14T14:12:17;1.5;89.8
72919;SHT30;68407;55.694;26.994;2023-12-14T14:17:09;1.5;89.8
72919;SHT30;68407;55.694;26.994;2023-12-14T14:22:07;1.6;89.7
72919;SHT30;68407;55.694;26.994;2023-12-14T14:26:41;1.7;89.6
72919;SHT30;68407;55.694;26.994;2023-12-14T14:31:31;1.7;89.5
72919;SHT30;68407;55.694;26.994;2023-12-14T14:37:09;1.6;89.5
72919;SHT30;68407;55.694;26.994;2023-12-14T14:41:31;1.6;89.7
72919;SHT30;68407;55.694;26.994;2023-12-14T14:46:33;1.6;89.6
72919;SHT30;68407;55.694;26.994;2023-12-14T14:51:55;1.6;89.7
72919;SHT30;68407;55.694;26.994;2023-12-14T14:56:41;1.7;89.6
72919;SHT30;68407;55.694;26.994;2023-12-14T15:02:17;1.7;89.5
72919;SHT30;68407;55.694;26.994;2023-12-14T15:07:09;1.7;89.5
72919;SHT30;68407;55.694;26.994;2023-12-14T15:11:59;1.7;89.6
72919;SHT30;68407;55.694;26.994;2023-12-14T15:16:31;1.7;89.7
72919;SHT30;68407;55.694;26.994;2023-12-14T15:21:51;1.6;89.9
72919;SHT30;68407;55.694;26.994;2023-12-14T15:27:19;1.6;90.1
72919;SHT30;68407;55.694;26.994;2023-12-14T15:31:51;1.6;90.2
72919;SHT30;68407;55.694;26.994;2023-12-14T15:36:31;1.6;90.3
72919;SHT30;68407;55.694;26.994;2023-12-14T15:41:57;1.7;90.4
72919;SHT30;68407;55.694;26.994;2023-12-14T15:47:11;1.6;90.5
72919;SHT30;68407;55.694;26.994;2023-12-14T15:52:15;1.5;90.9
72919;SHT30;68407;55.694;26.994;2023-12-14T15:57:09;1.5;91.2
72919;SHT30;68407;55.694;26.994;2023-12-14T16:01:41;1.5;91.3
72919;SHT30;68407;55.694;26.994;2023-12-14T16:06:43;1.5;91.5
72919;SHT30;68407;55.694;26.994;2023-12-14T16:12:17;1.4;91.6
72919;SHT30;68407;55.694;26.994;2023-12-14T16:17:11;1.4;91.7
72919;SHT30;68407;55.694;26.994;2023-12-14T16:21:49;1.4;91.8
72919;SHT30;68407;55.694;26.994;2023-12-14T16:26:31;1.4;91.8
72919;SHT30;68407;55.694;26.994;2023-12-14T16:31:43;1.3;92
72919;SHT30;68407;55.694;26.994;2023-12-14T16:36:59;1.3;92.1
72919;SHT30;68407;55.694;26.994;2023-12-14T16:42:17;1.4;92
72919;SHT30;68407;55.694;26.994;2023-12-14T16:47:09;1.3;92.1
72919;SHT30;68407;55.694;26.994;2023-12-14T16:51:31;1.3;92
72919;SHT30;68407;55.694;26.994;2023-12-14T16:56:43;1.3;92.1
72919;SHT30;68407;55.694;26.994;2023-12-14T17:01:49;1.4;92.1
72919;SHT30;68407;55.694;26.994;2023-12-14T17:07:19;1.4;91.9
72919;SHT30;68407;55.694;26.994;2023-12-14T17:11:49;1.4;91.8
72919;SHT30;68407;55.694;26.994;2023-12-14T17:16:31;1.3;91.9
72919;SHT30;68407;55.694;26.994;2023-12-14T17:21:53;1.2;92.2
72919;SHT30;68407;55.694;26.994;2023-12-14T17:26:59;1.2;92.3
72919;SHT30;68407;55.694;26.994;2023-12-14T17:32:17;1.2;92.4
72919;SHT30;68407;55.694;26.994;2023-12-14T17:36:36;1.1;92.5
72919;SHT30;68407;55.694;26.994;2023-12-14T17:42:07;1.1;92.6
72919;SHT30;68407;55.694;26.994;2023-12-14T17:46:33;1.2;92.6
72919;SHT30;68407;55.694;26.994;2023-12-14T17:51:51;1.2;92.4
72919;SHT30;68407;55.694;26.994;2023-12-14T17:57:17;1.2;92.4
72919;SHT30;68407;55.694;26.994;2023-12-14T18:01:42;1.2;92.2
72919;SHT30;68407;55.694;26.994;2023-12-14T18:07:17;1.2;92.2
72919;SHT30;68407;55.694;26.994;2023-12-14T18:11:53;1.3;92.2
72919;SHT30;68407;55.694;26.994;2023-12-14T18:16:43;1.2;92.1
72919;SHT30;68407;55.694;26.994;2023-12-14T18:22:19;1.2;92.1
72919;SHT30;68407;55.694;26.994;2023-12-14T18:26:59;1.3;92
72919;SHT30;68407;55.694;26.994;2023-12-14T18:31:33;1.2;91.7
72919;SHT30;68407;55.694;26.994;2023-12-14T18:36:47;1.3;91.6
72919;SHT30;68407;55.694;26.994;2023-12-14T18:41:49;1.3;91.4
72919;SHT30;68407;55.694;26.994;2023-12-14T18:47:19;1.3;91.2
72919;SHT30;68407;55.694;26.994;2023-12-14T18:52:09;1.3;91
72919;SHT30;68407;55.694;26.994;2023-12-14T18:56:41;1.3;90.9
72919;SHT30;68407;55.694;26.994;2023-12-14T19:01:57;1.2;90.6
72919;SHT30;68407;55.694;26.994;2023-12-14T19:06:43;1.1;90.7
72919;SHT30;68407;55.694;26.994;2023-12-14T19:12:17;1.2;90.7
72919;SHT30;68407;55.694;26.994;2023-12-14T19:17:09;1.2;90.4
72919;SHT30;68407;55.694;26.994;2023-12-14T19:21:31;1.1;90.2
72919;SHT30;68407;55.694;26.994;2023-12-14T19:26:47;1;90.1
72919;SHT30;68407;55.694;26.994;2023-12-14T19:31:33;0.9;90.1
72919;SHT30;68407;55.694;26.994;2023-12-14T19:37:17;0.9;90.3
72919;SHT30;68407;55.694;26.994;2023-12-14T19:41:31;0.8;90.3
72919;SHT30;68407;55.694;26.994;2023-12-14T19:47:01;0.8;90.4
72919;SHT30;68407;55.694;26.994;2023-12-14T19:51:59;0.9;90.3
72919;SHT30;68407;55.694;26.994;2023-12-14T19:56:45;0.8;89.7
72919;SHT30;68407;55.694;26.994;2023-12-14T20:02:17;0.7;89.5
72919;SHT30;68407;55.694;26.994;2023-12-14T20:07:17;0.6;89.4
72919;SHT30;68407;55.694;26.994;2023-12-14T20:11:41;0.5;89.5
72919;SHT30;68407;55.694;26.994;2023-12-14T20:16:33;0.4;89.5
72919;SHT30;68407;55.694;26.994;2023-12-14T20:21:34;0.4;89.7
72919;SHT30;68407;55.694;26.994;2023-12-14T20:27:17;0.3;89.7
72919;SHT30;68407;55.694;26.994;2023-12-14T20:32:09;0.3;89.8
72919;SHT30;68407;55.694;26.994;2023-12-14T20:36:31;0.2;89.7
72919;SHT30;68407;55.694;26.994;2023-12-14T20:41:57;0.1;89.7
72919;SHT30;68407;55.694;26.994;2023-12-14T20:46:53;0.1;89.8
72919;SHT30;68407;55.694;26.994;2023-12-14T20:52:15;0;89.7
72919;SHT30;68407;55.694;26.994;2023-12-14T20:57:17;-0.1;89.7
72919;SHT30;68407;55.694;26.994;2023-12-14T21:01:31;-0.1;89.7
72919;SHT30;68407;55.694;26.994;2023-12-14T21:06:51;-0.2;89.7
72919;SHT30;68407;55.694;26.994;2023-12-14T21:12:07;-0.2;89.9
72919;SHT30;68407;55.694;26.994;2023-12-14T21:17:15;-0.2;89.9
72919;SHT30;68407;55.694;26.994;2023-12-14T21:21:33;-0.2;89.8
72919;SHT30;68407;55.694;26.994;2023-12-14T21:26:49;-0.1;89.6
72919;SHT30;68407;55.694;26.994;2023-12-14T21:31:33;-0.1;89.3
72919;SHT30;68407;55.694;26.994;2023-12-14T21:36:43;-0.1;89.2
72919;SHT30;68407;55.694;26.994;2023-12-14T21:42:17;-0.1;89.1
72919;SHT30;68407;55.694;26.994;2023-12-14T21:46:53;-0.2;89
72919;SHT30;68407;55.694;26.994;2023-12-14T21:51:37;-0.2;89
72919;SHT30;68407;55.694;26.994;2023-12-14T21:56:41;-0.2;89.2
72919;SHT30;68407;55.694;26.994;2023-12-14T22:02:11;-0.2;89.2
72919;SHT30;68407;55.694;26.994;2023-12-14T22:07:17;-0.2;89
72919;SHT30;68407;55.694;26.994;2023-12-14T22:11:33;-0.2;88.9
72919;SHT30;68407;55.694;26.994;2023-12-14T22:16:33;-0.2;88.8
72919;SHT30;68407;55.694;26.994;2023-12-14T22:21:51;-0.2;88.8
72919;SHT30;68407;55.694;26.994;2023-12-14T22:27:09;-0.2;88.7
72919;SHT30;68407;55.694;26.994;2023-12-14T22:32:17;-0.4;88.2
72919;SHT30;68407;55.694;26.994;2023-12-14T22:37:09;-0.5;87.9
72919;SHT30;68407;55.694;26.994;2023-12-14T22:41:33;-0.7;87.5
72919;SHT30;68407;55.694;26.994;2023-12-14T22:46:59;-0.9;87.7
72919;SHT30;68407;55.694;26.994;2023-12-14T22:51:51;-1.1;88
72919;SHT30;68407;55.694;26.994;2023-12-14T22:57:17;-1.2;88.4
72919;SHT30;68407;55.694;26.994;2023-12-14T23:01:47;-1.2;88.4
72919;SHT30;68407;55.694;26.994;2023-12-14T23:06:47;-1.3;88.6
72919;SHT30;68407;55.694;26.994;2023-12-14T23:11:49;-1.4;88.6
72919;SHT30;68407;55.694;26.994;2023-12-14T23:17:09;-1.5;88.8
72919;SHT30;68407;55.694;26.994;2023-12-14T23:22:17;-1.6;88.9
72919;SHT30;68407;55.694;26.994;2023-12-14T23:26:31;-1.7;88.8
72919;SHT30;68407;55.694;26.994;2023-12-14T23:32:07;-1.7;88.9
72919;SHT30;68407;55.694;26.994;2023-12-14T23:36:41;-1.8;89
72919;SHT30;68407;55.694;26.994;2023-12-14T23:41:31;-1.8;88.8
72919;SHT30;68407;55.694;26.994;2023-12-14T23:47:09;-1.8;88.9
72919;SHT30;68407;55.694;26.994;2023-12-14T23:52:19;-1.8;88.9
72919;SHT30;68407;55.694;26.994;2023-12-14T23:56:38;-1.9;88.8
